Metar Cercanos

 

LEPA - Palma De Mallorc, Spain
Distance from station: ONO 38km
Actualización: 17/08/2018 19:00
Lluvia débil, Muy nuboso
Lluvia débil, Muy nuboso
 Viento del NNE
Viento: NNE 9 km/h
Temperatura: 22°C
Rocío: 20°C
Humedad: 88%
Barómetro: 1016 hPa
Resumen: Lluvia débil
Clouds: Muy nuboso
Visibility: 10 km
Cloud details: Few Clouds 366 m
Few Clouds 1067 m
Muy nuboso 1829 m
2018/08/17 17:00 LEPA 171700Z 03005KT 010V080 9999 -RA FEW012 FEW035CB BKN060 22/20 Q1016 NOSIG
LEMH - Mahon/Menorca Is, Spain
Distance from station: ENE 105km
Actualización: 17/08/2018 19:00
Thunderstorm, Nearby showers, Parcialmente nuboso
Thunderstorm, Nearby showers, Parcialmente nuboso
 Viento del NNE
Viento: NNE 15 km/h
Temperatura: 23°C
Rocío: 19°C
Humedad: 78%
Barómetro: 1016 hPa
Resumen: Thunderstorm, Nearby showers
Clouds: Parcialmente nuboso
Visibility: 10 km
Cloud details: Few Clouds 762 m
Parcialmente nuboso 914 m
2018/08/17 17:00 LEMH 171700Z 03008KT 350V080 9999 TS VCSH FEW025CB SCT030TCU 23/19 Q1016 WS R01
 
LEIB - Ibiza/Es Codola, Spain
Distance from station: OSO 165km
Actualización: 17/08/2018 19:00
Few Clouds
Few Clouds
 Viento del ENE
Viento: ENE 11 km/h
Temperatura: 25°C
Rocío: 20°C
Humedad: 74%
Barómetro: 1015 hPa
Clouds: Few Clouds
Visibility: 10 km
Cloud details: Few Clouds 549 m
Few Clouds 610 m
2018/08/17 17:00 LEIB 171700Z 07006KT 9999 FEW018 FEW020TCU 25/20 Q1015 NOSIG
LEBL - Barcelona Airpor, Spain
Distance from station: NNO 225km
Actualización: 17/08/2018 19:00
Few Clouds
Few Clouds
 Viento del NO
Viento: NO 22 km/h
Temperatura: 23°C
Rocío: 18°C
Humedad: 74%
Barómetro: 1017 hPa
Clouds: Few Clouds
Visibility: 10 km
Cloud details: Few Clouds 762 m
2018/08/17 17:00 LEBL 171700Z 32012KT 9999 FEW025TCU 23/18 Q1017 NOSIG
 
LEVC - Valencia (civ/Mi, Spain
Distance from station: NO 188km
Actualización: 17/08/2018 19:00
Few Clouds
Few Clouds
 Viento del ESE
Viento: ESE 15 km/h
Temperatura: 27°C
Indice Calor: 28°C
Rocío: 19°C
Humedad: 62%
Barómetro: 1016 hPa
Clouds: Few Clouds
Visibility: 10 km
Cloud details: Few Clouds 762 m
2018/08/17 17:00 LEVC 171700Z 12008KT 9999 FEW025CB 27/19 Q1016 NOSIG
LEGE - Gerona/Costa Bra, Spain
Distance from station: N 276km
Actualización: 17/08/2018 19:00
Parcialmente nuboso
Parcialmente nuboso
 Viento del N
Viento: N 6 km/h
Temperatura: 19°C
Rocío: 18°C
Humedad: 94%
Barómetro: 1017 hPa
Clouds: Parcialmente nuboso
Visibility: 10 km
Cloud details: Few Clouds 152 m
Parcialmente nuboso 2743 m
2018/08/17 17:00 LEGE 171700Z 01003KT 310V060 9999 FEW005 SCT090 19/18 Q1017
 
LEAL - Alicante/El Alte, Spain
Distance from station: OSO 344km
Actualización: 17/08/2018 19:00
Few Clouds
Few Clouds
 Viento del E
Viento: E 9 km/h
Temperatura: 26°C
Rocío: 20°C
Humedad: 70%
Barómetro: 1016 hPa
Clouds: Few Clouds
Visibility: 10 km
Cloud details: Few Clouds 610 m
2018/08/17 17:00 LEAL 171700Z 09005KT 040V140 9999 FEW020 26/20 Q1016 NOSIG
LEAM - Almeria Airport, Spain
Distance from station: SSO 56km
Actualización: 17/08/2018 19:00
Few Clouds
Few Clouds
 Viento del S
Viento: S 7 km/h
Temperatura: 27°C
Indice Calor: 29°C
Rocío: 21°C
Humedad: 70%
Barómetro: 1014 hPa
Clouds: Few Clouds
Visibility: 10 km
Cloud details: Few Clouds 914 m
2018/08/17 17:00 LEAM 171700Z 17004KT 120V210 9999 FEW030 27/21 Q1014
 
LEZG - Zaragoza (mil/Ci, Spain
Distance from station: NO 431km
Actualización: 17/08/2018 19:00
Few Clouds
Few Clouds
 Viento del ONO
Viento: ONO 46 km/h
Temperatura: 24°C
Rocío: 12°C
Humedad: 47%
Barómetro: 1018 hPa
Clouds: Few Clouds
Visibility: 10 km
Cloud details: Few Clouds 2591 m
2018/08/17 17:00 LEZG 171700Z 30025KT 280V340 9999 FEW085 24/12 Q1018
LEMD - Madrid/Barajas, Spain
Distance from station: ONO 234km
Actualización: 17/08/2018 19:00
Despejado
Despejado
 Viento del NNE
Viento: NNE 15 km/h
Temperatura: 32°C
Rocío: 13°C
Humedad: 31%
Barómetro: 1016 hPa
Resumen: Despejado
Visibility: greater than 10 km
2018/08/17 17:00 LEMD 171700Z 02008KT 350V070 CAVOK 32/13 Q1016 NOSIG
 
LEGR - Granada Airport, Spain
Distance from station: OSO 62km
Actualización: 17/08/2018 19:00
Parcialmente nuboso
Parcialmente nuboso
 Viento del varies
Viento: varies 4 km/h
Temperatura: 30°C
Rocío: 13°C
Humedad: 35%
Barómetro: 1016 hPa
Clouds: Parcialmente nuboso
Visibility: 10 km
Cloud details: Parcialmente nuboso 1829 m
2018/08/17 17:00 LEGR 171700Z VRB02KT 9999 SCT060TCU 30/13 Q1016
LEMG - Malaga (civ/Mil), Spain
Distance from station: OSO 227km
Actualización: 17/08/2018 19:00
Parcialmente nuboso
Parcialmente nuboso
 Viento del ESE
Viento: ESE 15 km/h
Temperatura: 27°C
Indice Calor: 28°C
Rocío: 18°C
Humedad: 58%
Barómetro: 1014 hPa
Clouds: Parcialmente nuboso
Visibility: 10 km
Cloud details: Parcialmente nuboso 1219 m
2018/08/17 17:00 LEMG 171700Z 11008KT 9999 SCT040 27/18 Q1014 NOSIG
 
LEZL - Sevilla (civ/Mil, Spain
Distance from station: S 318km
Actualización: 17/08/2018 19:00
Despejado
Despejado
 Viento del SO
Viento: SO 13 km/h
Temperatura: 35°C
Rocío: 16°C
Humedad: 32%
Barómetro: 1012 hPa
Resumen: Despejado
Visibility: greater than 10 km
2018/08/17 17:00 LEZL 171700Z 23007KT 180V280 CAVOK 35/16 Q1012 NOSIG
LEVT - Vitoria, Spain
Distance from station: NO 226km
Actualización: 17/08/2018 19:00
Muy nuboso
Muy nuboso
 Viento del NNE
Viento: NNE 13 km/h
Temperatura: 16°C
Rocío: 13°C
Humedad: 83%
Barómetro: 1024 hPa
Clouds: Muy nuboso
Visibility: 10 km
Cloud details: Few Clouds 305 m
Muy nuboso 762 m
2018/08/17 17:00 LEVT 171700Z 03007KT 360V080 9999 FEW010 BKN025 16/13 Q1024
 
LEBB - Bilbao/Sondica, Spain
Distance from station: NNO 235km
Actualización: 17/08/2018 19:00
Muy nuboso
Muy nuboso
 Viento del NNE
Viento: NNE 11 km/h
Temperatura: 21°C
Rocío: 13°C
Humedad: 60%
Barómetro: 1024 hPa
Clouds: Muy nuboso
Visibility: 10 km
Cloud details: Parcialmente nuboso 1067 m
Muy nuboso 1981 m
2018/08/17 17:00 LEBB 171700Z 02006KT 340V060 9999 SCT035 BKN065 21/13 Q1024 NOSIG
LESO - San Sebastian/Fu, Spain
Distance from station: N 231km
Actualización: 17/08/2018 19:00
Muy nuboso
Muy nuboso
 Viento del N
Viento: N 11 km/h
Temperatura: 21°C
Rocío: 14°C
Humedad: 64%
Barómetro: 1023 hPa
Clouds: Muy nuboso
Visibility: 10 km
Cloud details: Parcialmente nuboso 975 m
Muy nuboso 1189 m
Muy nuboso 1676 m
2018/08/17 17:00 LESO 171700Z 35006KT 260V040 9999 SCT032 BKN039 BKN055 21/14 Q1023
 
LEVD - Valladolid(Mil/C, Spain
Distance from station: ONO 239km
Actualización: 17/08/2018 19:00
Few Clouds
Few Clouds
 Viento del ENE
Viento: ENE 28 km/h
Temperatura: 23°C
Rocío: 11°C
Humedad: 47%
Barómetro: 1021 hPa
Clouds: Few Clouds
Visibility: 10 km
Cloud details: Few Clouds 1433 m
2018/08/17 17:00 LEVD 171700Z 06015KT 020V090 9999 FEW047 23/11 Q1021
LESA - Salamanca (civ/M, Spain
Distance from station: ONO 349km
Actualización: 17/08/2018 19:00
Few Clouds
Few Clouds
 Viento del NE
Viento: NE 19 km/h
Temperatura: 27°C
Rocío: 12°C
Humedad: 39%
Barómetro: 1019 hPa
Clouds: Few Clouds
Visibility: 10 km
Cloud details: Few Clouds 1219 m
2018/08/17 17:00 LESA 171700Z 04010KT 010V080 9999 FEW040 27/12 Q1019
 
LEXJ - Santander/Paraya, Spain
Distance from station: NNO 247km
Actualización: 17/08/2018 19:00
Muy nuboso
Muy nuboso
 Viento del NNO
Viento: NNO 11 km/h
Temperatura: 20°C
Rocío: 14°C
Humedad: 69%
Barómetro: 1024 hPa
Clouds: Muy nuboso
Visibility: 10 km
Cloud details: Few Clouds 914 m
Muy nuboso 1067 m
2018/08/17 17:00 LEXJ 171700Z 33006KT 9999 FEW030 BKN035 20/14 Q1024
LEAS - Asturias/Aviles, Spain
Distance from station: NO 214km
Actualización: 17/08/2018 19:00
Parcialmente nuboso
Parcialmente nuboso
 Viento del ENE
Viento: ENE 9 km/h
Temperatura: 20°C
Rocío: 14°C
Humedad: 69%
Barómetro: 1024 hPa
Clouds: Parcialmente nuboso
Visibility: 10 km
Cloud details: Parcialmente nuboso 853 m
Parcialmente nuboso 1768 m
2018/08/17 17:00 LEAS 171700Z 06005KT 010V120 9999 SCT028 SCT058 20/14 Q1024 NOSIG
 
LECO - La Coruna/Alvedr, Spain
Distance from station: ONO 222km
Actualización: 17/08/2018 19:00
Few Clouds
Few Clouds
 Viento del NE
Viento: NE 17 km/h
Temperatura: 22°C
Rocío: 13°C
Humedad: 57%
Barómetro: 1023 hPa
Clouds: Few Clouds
Visibility: 10 km
Cloud details: Few Clouds 1128 m
2018/08/17 17:00 LECO 171700Z 04009KT 340V080 9999 FEW037 22/13 Q1023 NOSIG
LEVX - Vigo/Peinador, Spain
Distance from station: O 214km
Actualización: 17/08/2018 19:00
Despejado
Despejado
 Viento del N
Viento: N 26 km/h
Temperatura: 24°C
Rocío: 14°C
Humedad: 54%
Barómetro: 1019 hPa
Resumen: Despejado
Visibility: greater than 10 km
2018/08/17 17:00 LEVX 171700Z 01014KT 330V060 CAVOK 24/14 Q1019 NOSIG